createdAt,value
2022-09-23T00:02:22.690Z,50.70
2022-09-23T00:05:26.893Z,51.69
2022-09-23T00:08:29.680Z,60.75
2022-09-23T00:11:32.378Z,55.62
2022-09-23T00:14:35.039Z,54.90
2022-09-23T00:17:38.061Z,54.12
2022-09-23T00:20:42.088Z,53.50
2022-09-23T00:23:44.970Z,53.61
2022-09-23T00:26:47.681Z,53.01
2022-09-23T00:29:50.360Z,52.46
2022-09-23T00:32:53.985Z,53.31
2022-09-23T00:36:00.792Z,53.01
2022-09-23T00:39:04.553Z,53.05
2022-09-23T00:42:08.091Z,53.21
2022-09-23T00:45:12.073Z,52.71
2022-09-23T00:48:17.091Z,52.75
2022-09-23T00:51:22.520Z,53.37
2022-09-23T00:54:27.563Z,51.97
2022-09-23T00:57:30.695Z,53.35
2022-09-23T01:00:35.592Z,52.97
2022-09-23T01:03:38.282Z,53.21
2022-09-23T01:06:42.594Z,51.50
2022-09-23T01:09:45.961Z,53.17
2022-09-23T01:12:57.873Z,53.15
2022-09-23T01:16:06.898Z,52.69
2022-09-23T01:19:18.186Z,53.11
2022-09-23T01:22:26.307Z,52.75
2022-09-23T01:25:37.760Z,52.25
2022-09-23T01:29:03.490Z,52.36
2022-09-23T01:32:12.787Z,53.02
2022-09-23T01:35:23.860Z,52.91
2022-09-23T01:38:31.678Z,52.46
2022-09-23T01:41:52.527Z,51.89
2022-09-23T01:44:58.110Z,52.26
2022-09-23T01:48:04.215Z,51.89
2022-09-23T01:51:09.657Z,52.74
2022-09-23T01:54:15.871Z,53.02
2022-09-23T01:57:24.339Z,53.08
2022-09-23T02:00:30.710Z,52.53
2022-09-23T02:03:36.893Z,52.15
2022-09-23T02:06:43.384Z,52.49
2022-09-23T02:09:48.193Z,52.34
2022-09-23T02:12:54.099Z,52.28
2022-09-23T02:15:59.003Z,52.12
2022-09-23T02:19:06.942Z,52.30
2022-09-23T02:22:10.908Z,52.12
2022-09-23T02:25:16.299Z,52.02
2022-09-23T02:28:21.388Z,52.61
2022-09-23T02:31:29.012Z,52.85
2022-09-23T02:34:39.482Z,51.83
2022-09-23T02:37:44.706Z,51.91
2022-09-23T02:40:51.541Z,51.90
2022-09-23T02:43:57.140Z,52.29
2022-09-23T02:46:59.889Z,52.32
2022-09-23T02:50:04.078Z,52.60
2022-09-23T02:53:08.570Z,51.59
2022-09-23T02:56:15.327Z,52.03
2022-09-23T02:59:19.539Z,51.69
2022-09-23T03:02:39.976Z,52.97
2022-09-23T03:05:48.016Z,51.92
2022-09-23T03:08:55.893Z,52.41
2022-09-23T03:12:05.470Z,51.91
2022-09-23T03:15:13.560Z,51.87
2022-09-23T03:18:18.293Z,51.22
2022-09-23T03:21:25.088Z,51.87
2022-09-23T03:24:28.867Z,51.69
2022-09-23T03:27:33.658Z,51.66
2022-09-23T03:30:37.139Z,51.99
2022-09-23T03:33:41.843Z,52.29
2022-09-23T03:36:53.876Z,52.24
2022-09-23T03:40:00.933Z,52.19
2022-09-23T03:43:05.058Z,51.38
2022-09-23T03:46:08.802Z,51.56
2022-09-23T03:49:15.946Z,51.53
2022-09-23T03:52:21.503Z,51.67
2022-09-23T03:55:24.159Z,51.44
2022-09-23T03:58:26.849Z,51.77
2022-09-23T04:01:29.791Z,51.95
2022-09-23T04:04:34.351Z,51.69
2022-09-23T04:07:38.571Z,51.73
2022-09-23T04:10:41.863Z,51.28
2022-09-23T04:13:44.556Z,51.49
2022-09-23T04:16:47.699Z,51.72
2022-09-23T04:19:50.472Z,51.97
2022-09-23T04:22:54.512Z,53.08
2022-09-23T04:25:57.249Z,51.81
2022-09-23T04:29:00.211Z,52.48
2022-09-23T04:32:03.076Z,51.66
2022-09-23T04:35:06.202Z,51.83
2022-09-23T04:38:11.319Z,51.75
2022-09-23T04:41:14.294Z,51.46
2022-09-23T04:44:17.261Z,52.11
2022-09-23T04:47:19.925Z,51.86
2022-09-23T04:50:22.663Z,52.03
2022-09-23T04:53:26.671Z,52.38
2022-09-23T04:56:32.624Z,51.85
2022-09-23T04:59:35.282Z,52.05
2022-09-23T05:02:43.086Z,52.81
2022-09-23T05:05:46.159Z,52.39
2022-09-23T05:08:51.466Z,52.30
2022-09-23T05:11:54.187Z,52.57
2022-09-23T05:14:56.930Z,52.61
2022-09-23T05:17:59.778Z,53.18
2022-09-23T05:21:02.907Z,52.38
2022-09-23T05:24:07.301Z,52.48
2022-09-23T05:27:10.125Z,52.58
2022-09-23T05:30:13.046Z,52.29
2022-09-23T05:33:15.681Z,52.89
2022-09-23T05:36:18.913Z,52.34
2022-09-23T05:39:22.919Z,52.58
2022-09-23T05:42:25.555Z,52.49
2022-09-23T05:45:29.033Z,52.51
2022-09-23T05:48:32.482Z,52.42
2022-09-23T05:51:35.850Z,52.89
2022-09-23T05:54:40.375Z,52.25
2022-09-23T05:57:43.201Z,53.25
2022-09-23T06:00:45.977Z,52.80
2022-09-23T06:03:50.170Z,55.94
2022-09-23T06:06:53.421Z,53.71
2022-09-23T06:09:57.471Z,53.37
2022-09-23T06:13:00.124Z,53.67
2022-09-23T06:16:03.331Z,53.31
2022-09-23T06:19:07.011Z,53.36
2022-09-23T06:22:11.059Z,53.58
2022-09-23T06:25:15.166Z,53.12
2022-09-23T06:28:19.047Z,53.79
2022-09-23T06:31:21.841Z,53.44
2022-09-23T06:34:24.520Z,53.55
2022-09-23T06:37:27.274Z,53.52
2022-09-23T06:40:32.160Z,53.82
2022-09-23T06:43:35.177Z,52.79
2022-09-23T06:46:37.921Z,53.21
2022-09-23T06:49:40.756Z,53.60
2022-09-23T06:52:43.615Z,53.43
2022-09-23T06:55:47.672Z,53.26
2022-09-23T06:58:52.654Z,52.94
2022-09-23T07:01:55.600Z,53.21
2022-09-23T07:04:58.360Z,53.31
2022-09-23T07:08:01.144Z,52.75
2022-09-23T07:11:06.769Z,52.95
2022-09-23T07:14:10.897Z,52.83
2022-09-23T07:17:13.683Z,52.37
2022-09-23T07:20:18.022Z,53.47
2022-09-23T07:23:20.686Z,52.97
2022-09-23T07:26:24.956Z,53.46
2022-09-23T07:29:28.122Z,52.64
2022-09-23T07:32:42.590Z,52.27
2022-09-23T07:35:50.652Z,52.25
2022-09-23T07:38:53.393Z,52.01
2022-09-23T07:41:58.445Z,52.35
2022-09-23T07:45:02.230Z,52.31
2022-09-23T07:48:07.439Z,52.48
2022-09-23T07:51:10.679Z,52.11
2022-09-23T07:54:14.636Z,52.64
2022-09-23T07:57:21.366Z,52.67
2022-09-23T08:00:24.077Z,51.83
2022-09-23T08:03:26.705Z,52.50
2022-09-23T08:06:29.430Z,55.33
2022-09-23T08:09:38.332Z,54.68
2022-09-23T08:12:42.406Z,53.99
2022-09-23T08:15:53.243Z,53.61
2022-09-23T08:18:58.394Z,53.53
2022-09-23T08:22:01.202Z,53.28
2022-09-23T08:25:04.371Z,53.15
2022-09-23T08:28:10.313Z,53.24
2022-09-23T08:31:13.671Z,52.87
2022-09-23T08:34:18.040Z,52.97
2022-09-23T08:37:20.707Z,53.13
2022-09-23T08:40:23.583Z,52.45
2022-09-23T08:43:32.811Z,52.53
2022-09-23T08:46:37.939Z,53.01
2022-09-23T08:49:42.895Z,52.62
2022-09-23T08:52:50.370Z,52.01
2022-09-23T08:55:54.659Z,52.10
2022-09-23T08:59:03.014Z,52.25
2022-09-23T09:02:07.801Z,52.68
2022-09-23T09:05:14.465Z,51.84
2022-09-23T09:08:24.020Z,51.93
2022-09-23T09:11:31.316Z,52.35
2022-09-23T09:14:38.755Z,51.51
2022-09-23T09:17:47.425Z,51.77
2022-09-23T09:20:54.877Z,51.64
2022-09-23T09:23:58.243Z,51.19
2022-09-23T09:27:02.140Z,51.17
2022-09-23T09:30:13.735Z,51.39
2022-09-23T09:33:18.039Z,50.90
2022-09-23T09:36:24.830Z,51.39
2022-09-23T09:39:28.549Z,50.85
2022-09-23T09:42:39.110Z,50.22
2022-09-23T09:45:57.830Z,50.73
2022-09-23T09:49:06.571Z,50.94
2022-09-23T09:52:13.014Z,50.45
2022-09-23T09:55:25.701Z,50.68
2022-09-23T09:58:31.239Z,51.00
2022-09-23T10:01:35.891Z,51.56
2022-09-23T10:04:39.546Z,51.52
2022-09-23T10:07:42.312Z,51.66
2022-09-23T10:10:54.935Z,52.24
2022-09-23T10:14:12.515Z,51.40
2022-09-23T10:17:20.578Z,51.83
2022-09-23T10:20:23.344Z,51.49
2022-09-23T10:23:29.411Z,51.21
2022-09-23T10:26:33.702Z,50.91
2022-09-23T10:29:39.603Z,51.47
2022-09-23T10:32:58.179Z,50.93
2022-09-23T10:36:01.893Z,51.70
2022-09-23T10:39:19.483Z,50.36
2022-09-23T10:42:46.548Z,50.44
2022-09-23T10:46:07.340Z,50.30
2022-09-23T10:49:28.674Z,50.64
2022-09-23T10:52:46.130Z,50.32
2022-09-23T10:55:56.498Z,49.81
2022-09-23T10:59:21.989Z,49.44
2022-09-23T11:02:43.010Z,49.75
2022-09-23T11:05:48.799Z,49.62
2022-09-23T11:08:58.756Z,49.72
2022-09-23T11:12:10.194Z,49.49
2022-09-23T11:15:28.640Z,49.22
2022-09-23T11:18:52.667Z,50.49
2022-09-23T11:22:02.470Z,50.59
2022-09-23T11:25:14.487Z,50.77
2022-09-23T11:28:33.227Z,50.06
2022-09-23T11:31:38.989Z,49.78
2022-09-23T11:34:54.849Z,49.15
2022-09-23T11:37:59.339Z,49.17
2022-09-23T11:41:09.370Z,49.06
2022-09-23T11:44:16.323Z,49.31
2022-09-23T11:47:23.331Z,48.99
2022-09-23T11:50:30.211Z,49.11
2022-09-23T11:53:37.669Z,48.67
2022-09-23T11:56:47.915Z,48.72
2022-09-23T11:59:55.003Z,48.53
2022-09-23T12:03:05.864Z,48.31
2022-09-23T12:06:13.429Z,48.65
2022-09-23T12:09:41.003Z,48.33
2022-09-23T12:12:54.240Z,47.76
2022-09-23T12:16:06.300Z,47.46
2022-09-23T12:19:18.949Z,46.99
2022-09-23T12:22:31.888Z,46.84
2022-09-23T12:25:39.061Z,46.31
2022-09-23T12:28:46.266Z,45.22
2022-09-23T12:31:50.108Z,44.81
2022-09-23T12:34:56.792Z,44.57
2022-09-23T12:38:03.021Z,44.43
2022-09-23T12:41:25.915Z,44.75
2022-09-23T12:44:38.260Z,44.77
2022-09-23T12:47:42.410Z,44.50
2022-09-23T12:50:55.947Z,45.13
2022-09-23T12:54:14.208Z,51.54
2022-09-23T12:57:38.026Z,49.24
2022-09-23T13:01:02.518Z,47.67
2022-09-23T13:04:24.010Z,45.59
2022-09-23T13:07:30.892Z,46.37
2022-09-23T13:10:36.898Z,46.20
2022-09-23T13:13:41.748Z,45.60
2022-09-23T13:16:46.259Z,45.12
2022-09-23T13:19:58.375Z,45.09
2022-09-23T13:23:08.140Z,44.57
2022-09-23T13:26:13.120Z,45.14
2022-09-23T13:29:18.716Z,44.84
2022-09-23T13:32:26.619Z,45.52
2022-09-23T13:35:34.884Z,45.67
2022-09-23T13:38:38.624Z,45.84
2022-09-23T13:41:41.318Z,45.45
2022-09-23T13:44:44.175Z,45.94
2022-09-23T13:47:49.177Z,46.19
2022-09-23T13:50:53.405Z,46.54
2022-09-23T13:53:57.105Z,45.86
2022-09-23T13:57:00.330Z,46.25
2022-09-23T14:00:04.079Z,47.15
2022-09-23T14:03:36.519Z,47.31
2022-09-23T14:06:42.117Z,47.28
2022-09-23T14:09:48.152Z,47.29
2022-09-23T14:12:52.420Z,47.69
2022-09-23T14:16:01.010Z,47.68
2022-09-23T14:19:03.793Z,47.50
2022-09-23T14:22:25.953Z,48.02
2022-09-23T14:25:28.687Z,48.36
2022-09-23T14:28:31.619Z,48.63
2022-09-23T14:31:34.407Z,48.64
2022-09-23T14:34:40.763Z,49.12
2022-09-23T14:38:03.064Z,48.75
2022-09-23T14:41:18.185Z,48.91
2022-09-23T14:44:26.142Z,49.41
2022-09-23T14:47:29.772Z,50.21
2022-09-23T14:50:47.253Z,50.24
2022-09-23T14:53:51.752Z,51.66
2022-09-23T14:56:57.978Z,51.09
2022-09-23T15:00:02.565Z,51.87
2022-09-23T15:03:14.637Z,52.97
2022-09-23T15:06:17.817Z,53.26
2022-09-23T15:09:24.952Z,53.86
2022-09-23T15:12:28.716Z,52.46
2022-09-23T15:15:31.444Z,53.08
2022-09-23T15:18:37.143Z,53.24
2022-09-23T15:21:41.137Z,52.90
2022-09-23T15:24:46.739Z,53.01
2022-09-23T15:28:00.077Z,53.87
2022-09-23T15:31:06.331Z,53.63
2022-09-23T15:34:15.127Z,53.67
2022-09-23T15:37:18.424Z,53.32
2022-09-23T15:40:25.255Z,53.29
2022-09-23T15:43:29.015Z,53.65
2022-09-23T15:46:35.215Z,53.91
2022-09-23T15:49:46.357Z,53.97
2022-09-23T15:52:52.695Z,53.38
2022-09-23T15:56:00.593Z,53.69
2022-09-23T15:59:04.947Z,53.61
2022-09-23T16:02:16.792Z,53.34
2022-09-23T16:05:26.077Z,52.83
2022-09-23T16:08:29.536Z,52.95
2022-09-23T16:11:36.287Z,52.79
2022-09-23T16:14:40.252Z,53.05
2022-09-23T16:17:46.459Z,52.81
2022-09-23T16:20:53.176Z,52.79
2022-09-23T16:23:59.595Z,52.68
2022-09-23T16:27:07.910Z,53.27
2022-09-23T16:30:11.485Z,54.62
2022-09-23T16:33:14.713Z,54.05
2022-09-23T16:36:22.158Z,55.23
2022-09-23T16:39:26.178Z,54.51
2022-09-23T16:42:30.222Z,54.17
2022-09-23T16:45:32.967Z,54.33
2022-09-23T16:48:48.301Z,54.83
2022-09-23T16:51:56.942Z,54.96
2022-09-23T16:55:02.645Z,54.91
2022-09-23T16:58:12.211Z,57.01
2022-09-23T17:01:34.791Z,57.86
2022-09-23T17:04:39.429Z,57.16
2022-09-23T17:07:45.290Z,57.07
2022-09-23T17:10:57.174Z,56.81
2022-09-23T17:14:01.454Z,56.04
2022-09-23T17:17:04.214Z,55.58
2022-09-23T17:20:10.298Z,55.27
2022-09-23T17:23:14.283Z,55.47
2022-09-23T17:26:18.120Z,54.98
2022-09-23T17:29:22.360Z,54.76
2022-09-23T17:32:26.049Z,54.18
2022-09-23T17:35:29.336Z,54.19
2022-09-23T17:38:33.627Z,54.25
2022-09-23T17:41:39.644Z,53.61
2022-09-23T17:44:44.749Z,53.22
2022-09-23T17:47:51.800Z,53.45
2022-09-23T17:50:57.699Z,53.40
2022-09-23T17:54:00.458Z,52.94
2022-09-23T17:57:03.791Z,52.54
2022-09-23T18:00:22.528Z,52.04
2022-09-23T18:03:34.035Z,52.66
2022-09-23T18:06:46.387Z,52.64
2022-09-23T18:09:49.931Z,51.89
2022-09-23T18:12:53.562Z,52.68
2022-09-23T18:16:06.995Z,52.72
2022-09-23T18:19:13.053Z,52.90
2022-09-23T18:22:21.901Z,53.27
2022-09-23T18:25:39.240Z,53.52
2022-09-23T18:28:50.590Z,53.13
2022-09-23T18:32:00.636Z,52.96
2022-09-23T18:35:03.901Z,52.84
2022-09-23T18:38:06.970Z,53.34
2022-09-23T18:41:12.098Z,52.80
2022-09-23T18:44:16.087Z,52.61
2022-09-23T18:47:38.497Z,53.04
2022-09-23T18:50:45.668Z,53.27
2022-09-23T18:53:53.216Z,52.71
2022-09-23T18:56:56.236Z,54.02
2022-09-23T19:00:13.259Z,52.92
2022-09-23T19:03:19.386Z,53.09
2022-09-23T19:06:24.588Z,52.53
2022-09-23T19:09:32.692Z,52.65
2022-09-23T19:12:36.608Z,53.11
2022-09-23T19:15:40.552Z,51.98
2022-09-23T19:18:47.914Z,52.44
2022-09-23T19:21:53.179Z,52.22
2022-09-23T19:24:56.016Z,54.07
2022-09-23T19:28:00.743Z,52.76
2022-09-23T19:31:11.524Z,52.46
2022-09-23T19:34:18.798Z,52.89
2022-09-23T19:37:22.918Z,51.89
2022-09-23T19:40:25.967Z,52.43
2022-09-23T19:43:29.853Z,51.79
2022-09-23T19:46:33.563Z,51.99
2022-09-23T19:49:37.847Z,52.51
2022-09-23T19:52:41.730Z,52.44
2022-09-23T19:55:44.682Z,52.88
2022-09-23T19:58:48.519Z,51.71
2022-09-23T20:01:51.319Z,53.16
2022-09-23T20:04:55.440Z,51.91
2022-09-23T20:07:59.134Z,52.42
2022-09-23T20:11:12.381Z,51.60
2022-09-23T20:14:15.245Z,51.46
2022-09-23T20:17:20.879Z,52.27
2022-09-23T20:20:24.953Z,51.44
2022-09-23T20:23:29.093Z,51.95
2022-09-23T20:26:49.212Z,52.06
2022-09-23T20:29:52.237Z,52.89
2022-09-23T20:32:54.950Z,52.83
2022-09-23T20:36:00.982Z,52.24
2022-09-23T20:39:05.806Z,52.38
2022-09-23T20:42:09.356Z,52.70
2022-09-23T20:45:12.103Z,52.06
2022-09-23T20:48:14.752Z,51.86
2022-09-23T20:51:18.940Z,51.96
2022-09-23T20:54:23.192Z,53.46
2022-09-23T20:57:27.691Z,52.59
2022-09-23T21:00:30.485Z,52.78
2022-09-23T21:03:33.905Z,52.29
2022-09-23T21:06:38.888Z,53.27
2022-09-23T21:09:41.648Z,52.18
2022-09-23T21:12:46.021Z,52.75
2022-09-23T21:15:48.794Z,51.81
2022-09-23T21:18:51.896Z,51.69
2022-09-23T21:21:56.246Z,52.90
2022-09-23T21:28:22.764Z,51.43
2022-09-23T21:31:26.394Z,52.98
2022-09-23T21:34:32.857Z,52.42
2022-09-23T21:37:36.897Z,52.44
2022-09-23T21:40:53.467Z,52.23
2022-09-23T21:43:56.386Z,52.55
2022-09-23T21:46:59.399Z,53.02
2022-09-23T21:50:02.626Z,51.87
2022-09-23T21:53:07.211Z,52.37
2022-09-23T21:56:10.963Z,52.92
2022-09-23T21:59:13.842Z,52.23
2022-09-23T22:02:17.313Z,53.03
2022-09-23T22:05:23.182Z,52.40
2022-09-23T22:08:27.412Z,52.00
2022-09-23T22:11:48.671Z,51.02
2022-09-23T22:14:52.468Z,51.17
2022-09-23T22:17:55.608Z,52.27
2022-09-23T22:20:59.741Z,51.46
2022-09-23T22:24:05.093Z,51.42
2022-09-23T22:27:07.946Z,51.17
2022-09-23T22:30:28.557Z,52.66
2022-09-23T22:33:31.202Z,53.08
2022-09-23T22:36:33.899Z,52.78
2022-09-23T22:39:38.057Z,52.59
2022-09-23T22:42:42.350Z,51.81
2022-09-23T22:45:49.802Z,52.10
2022-09-23T22:48:53.435Z,52.11
2022-09-23T22:51:56.149Z,52.25
2022-09-23T22:55:00.230Z,52.40
2022-09-23T22:58:21.197Z,52.42
2022-09-23T23:01:25.800Z,52.34
2022-09-23T23:04:29.783Z,52.24
2022-09-23T23:07:36.207Z,51.83
2022-09-23T23:10:40.981Z,51.89
2022-09-23T23:13:43.764Z,52.98
2022-09-23T23:16:46.784Z,52.00
2022-09-23T23:19:50.552Z,52.21
2022-09-23T23:22:53.420Z,52.54
2022-09-23T23:25:57.494Z,51.66
2022-09-23T23:29:00.914Z,52.43
2022-09-23T23:32:03.653Z,52.37
2022-09-23T23:35:06.771Z,52.50
2022-09-23T23:38:11.305Z,52.58
2022-09-23T23:41:16.229Z,52.73
2022-09-23T23:44:18.947Z,52.19
2022-09-23T23:47:22.220Z,51.73
2022-09-23T23:50:24.945Z,52.05
2022-09-23T23:53:30.416Z,51.75
2022-09-23T23:56:34.435Z,51.25
2022-09-23T23:59:37.068Z,51.93
